Aviation WX

[Source: ADDS]
METAR
KFKL 251955Z 24007KT 10SM 29/21 A3005 RMK AO1 =
TAF
KFKL 251720Z 2518/2618 24007KT P6SM BKN035 FM252100 23007KT P6SM VCTS BKN035CB FM260000 28005KT P6SM TSRA BKN035CB FM260300 26004KT P6SM VCTS BKN020CB FM260500 27004KT 3SM BR BKN015 FM261400 29004KT P6SM SCT030 AMD LTD TO CLD VIS AND WIND =